Time;durP1;ratioP1;P1;durP2;ratioP2;P2;SDS_P1;SDS_P2;PMS_P1;PMS_P2;Temp;Humidity;BMP_temperature;BMP_pressure;BME280_temperature;BME280_humidity;BME280_pressure;Samples;Min_cycle;Max_cycle;Signal;HPM_P1;HPM_P2
2021/07/26 00:00:47;;;;;;;2.47;2.38;;;21.10;71.30;;;;;;5022303;28;20190;-77
2021/07/26 00:03:13;;;;;;;2.40;2.30;;;21.00;70.70;;;;;;5026159;28;20422;-77
2021/07/26 00:05:38;;;;;;;4.30;2.00;;;21.00;71.00;;;;;;5020497;28;20216;-77
2021/07/26 00:08:04;;;;;;;2.13;1.92;;;21.00;71.60;;;;;;5021436;28;20180;-77
2021/07/26 00:10:30;;;;;;;4.43;1.77;;;21.00;71.10;;;;;;5014970;28;20565;-77
2021/07/26 00:12:56;;;;;;;2.38;2.28;;;20.90;70.90;;;;;;5026046;28;20181;-76
2021/07/26 00:15:21;;;;;;;1.80;1.80;;;20.90;70.60;;;;;;5022979;28;20204;-77
2021/07/26 00:17:47;;;;;;;2.05;1.95;;;20.90;71.00;;;;;;5026057;28;20663;-77
2021/07/26 00:20:14;;;;;;;2.03;1.92;;;20.90;71.00;;;;;;5023767;28;20243;-76
2021/07/26 00:22:40;;;;;;;2.25;2.17;;;20.90;70.50;;;;;;5021682;28;20976;-77
2021/07/26 00:25:09;;;;;;;1.80;1.80;;;20.90;71.20;;;;;;5021941;28;20224;-77
2021/07/26 00:27:36;;;;;;;2.00;2.00;;;20.90;70.30;;;;;;5025887;28;20184;-76
2021/07/26 00:30:02;;;;;;;1.83;1.80;;;20.90;71.20;;;;;;5024998;28;20199;-74
2021/07/26 00:32:29;;;;;;;2.00;1.80;;;20.90;70.60;;;;;;5025757;28;20634;-74
2021/07/26 00:34:55;;;;;;;1.75;1.42;;;20.90;71.10;;;;;;5018733;28;20184;-77
2021/07/26 00:37:25;;;;;;;2.45;1.85;;;20.90;71.00;;;;;;5024155;28;20184;-74
2021/07/26 00:39:52;;;;;;;2.13;2.03;;;20.90;70.60;;;;;;5021408;28;20268;-77
2021/07/26 00:42:18;;;;;;;1.65;1.55;;;20.80;70.90;;;;;;5018883;28;20189;-76
2021/07/26 00:44:43;;;;;;;1.92;1.77;;;20.80;71.80;;;;;;5025363;28;20229;-76
2021/07/26 00:47:09;;;;;;;1.88;1.70;;;20.80;70.90;;;;;;5017560;28;20188;-76
2021/07/26 00:49:35;;;;;;;2.13;2.10;;;20.70;72.00;;;;;;5016249;28;20176;-76
2021/07/26 00:52:01;;;;;;;2.20;1.85;;;20.70;71.30;;;;;;5021900;28;20228;-77
2021/07/26 00:54:30;;;;;;;1.80;1.70;;;20.70;71.80;;;;;;5018111;28;20288;-76
2021/07/26 00:56:59;;;;;;;2.15;1.83;;;20.60;71.80;;;;;;5012953;28;20177;-76
2021/07/26 00:59:25;;;;;;;1.85;1.83;;;20.60;71.60;;;;;;5021967;28;20606;-77
2021/07/26 01:01:51;;;;;;;1.92;1.83;;;20.60;72.60;;;;;;5020526;28;20263;-76
2021/07/26 01:04:18;;;;;;;5.38;1.60;;;20.60;72.90;;;;;;5014829;28;20212;-76
2021/07/26 01:06:44;;;;;;;1.77;1.77;;;20.50;72.30;;;;;;5023847;28;20252;-76
2021/07/26 01:09:10;;;;;;;1.58;1.58;;;20.50;72.40;;;;;;5027569;28;20184;-77
2021/07/26 01:11:35;;;;;;;1.70;1.60;;;20.40;72.90;;;;;;5021179;28;20199;-76
2021/07/26 01:14:02;;;;;;;1.27;1.27;;;20.40;72.40;;;;;;5028119;28;20268;-76
2021/07/26 01:16:29;;;;;;;1.95;1.58;;;20.40;73.20;;;;;;5021119;28;20199;-76
2021/07/26 01:18:55;;;;;;;1.17;1.17;;;20.30;73.20;;;;;;5021118;28;20671;-76
2021/07/26 01:21:20;;;;;;;1.58;1.48;;;20.30;73.30;;;;;;5028227;28;20283;-76
2021/07/26 01:23:50;;;;;;;1.80;1.80;;;20.30;73.20;;;;;;5023609;28;20235;-76
2021/07/26 01:26:18;;;;;;;3.65;1.60;;;20.30;73.10;;;;;;5025429;28;20595;-76
2021/07/26 01:28:49;;;;;;;1.42;1.38;;;20.20;73.00;;;;;;5025827;28;20604;-76
2021/07/26 01:31:16;;;;;;;6.00;1.50;;;20.20;73.00;;;;;;5025846;28;20195;-76
2021/07/26 01:33:44;;;;;;;1.58;1.55;;;20.20;73.50;;;;;;5024381;28;20196;-75
2021/07/26 01:36:10;;;;;;;1.60;1.60;;;20.20;73.80;;;;;;5025827;28;20176;-76
2021/07/26 01:38:36;;;;;;;1.90;1.23;;;20.20;72.60;;;;;;5016806;28;20647;-75
2021/07/26 01:41:04;;;;;;;1.30;1.15;;;20.20;72.70;;;;;;5015979;28;20197;-76
2021/07/26 01:43:34;;;;;;;3.13;1.45;;;20.20;72.70;;;;;;5021683;28;20268;-76
2021/07/26 01:46:08;;;;;;;2.78;1.92;;;20.20;73.20;;;;;;5020033;28;20732;-76
2021/07/26 01:48:43;;;;;;;1.05;1.05;;;20.20;73.40;;;;;;5026710;28;20262;-76
2021/07/26 01:51:16;;;;;;;1.48;1.38;;;20.10;72.90;;;;;;5021128;28;20635;-76
2021/07/26 01:53:44;;;;;;;1.38;1.38;;;20.10;73.10;;;;;;5023863;28;20183;-76
2021/07/26 01:56:10;;;;;;;1.80;1.60;;;20.10;73.00;;;;;;5017427;28;20666;-75
2021/07/26 01:58:36;;;;;;;1.17;1.17;;;20.10;72.80;;;;;;5017834;28;20234;-75
2021/07/26 02:01:02;;;;;;;2.25;1.27;;;20.00;73.20;;;;;;5027731;28;20180;-75
2021/07/26 02:03:30;;;;;;;2.70;1.45;;;20.00;73.20;;;;;;5025994;28;20191;-76
2021/07/26 02:05:56;;;;;;;1.60;1.50;;;20.00;73.30;;;;;;5026475;28;20312;-74
2021/07/26 02:08:22;;;;;;;1.40;1.40;;;19.90;74.60;;;;;;5019902;28;20196;-76
2021/07/26 02:10:47;;;;;;;1.52;1.42;;;19.90;74.80;;;;;;5028133;28;20240;-76
2021/07/26 02:13:13;;;;;;;1.52;1.52;;;19.80;75.00;;;;;;5025188;28;20220;-76
2021/07/26 02:15:40;;;;;;;1.60;1.50;;;19.70;74.60;;;;;;5022521;28;20211;-77
2021/07/26 02:18:06;;;;;;;1.85;1.73;;;19.70;74.30;;;;;;5025705;28;20231;-76
2021/07/26 02:20:31;;;;;;;3.58;1.70;;;19.60;74.40;;;;;;5023071;28;20307;-76
2021/07/26 02:22:57;;;;;;;1.60;1.60;;;19.60;74.60;;;;;;5020017;28;20184;-76
2021/07/26 02:25:22;;;;;;;1.40;1.40;;;19.60;74.60;;;;;;5020496;28;20220;-76
2021/07/26 02:27:48;;;;;;;1.65;1.65;;;19.60;74.80;;;;;;5020536;28;20685;-76
2021/07/26 02:30:14;;;;;;;1.45;1.45;;;19.50;75.30;;;;;;5020029;28;20262;-76
2021/07/26 02:32:40;;;;;;;2.00;1.90;;;19.50;74.80;;;;;;5022107;28;20181;-76
2021/07/26 02:35:06;;;;;;;1.80;1.70;;;19.40;75.60;;;;;;5021538;28;20204;-76
2021/07/26 02:37:32;;;;;;;1.58;1.58;;;19.40;75.00;;;;;;5025357;28;20630;-76
2021/07/26 02:39:58;;;;;;;10.52;2.10;;;19.40;75.20;;;;;;5018013;28;20185;-76
2021/07/26 02:42:23;;;;;;;2.10;1.95;;;19.40;75.40;;;;;;5021679;28;20226;-77
2021/07/26 02:44:49;;;;;;;2.08;1.98;;;19.30;75.70;;;;;;5018676;28;20677;-76
2021/07/26 02:47:14;;;;;;;2.28;2.03;;;19.30;76.00;;;;;;5019470;28;20209;-76
2021/07/26 02:49:40;;;;;;;3.08;2.78;;;19.30;76.00;;;;;;5024885;28;20558;-76
2021/07/26 02:52:06;;;;;;;3.78;2.65;;;19.20;76.10;;;;;;5020358;28;20590;-76
2021/07/26 02:54:32;;;;;;;2.78;2.67;;;19.20;76.40;;;;;;5022186;28;20250;-76
2021/07/26 02:56:57;;;;;;;2.90;2.70;;;19.20;76.40;;;;;;5020385;28;20181;-76
2021/07/26 02:59:23;;;;;;;2.95;2.65;;;19.10;76.50;;;;;;5025503;28;20242;-75
2021/07/26 03:01:51;;;;;;;2.50;2.40;;;19.10;76.70;;;;;;5020734;28;20181;-76
2021/07/26 03:04:17;;;;;;;2.80;2.60;;;19.00;77.10;;;;;;5018631;28;20580;-76
2021/07/26 03:06:43;;;;;;;2.63;2.53;;;19.00;77.40;;;;;;5022971;28;20315;-77
2021/07/26 03:09:08;;;;;;;2.90;2.80;;;19.00;77.30;;;;;;5024916;28;20270;-75
2021/07/26 03:11:36;;;;;;;3.53;3.15;;;18.90;77.60;;;;;;5023974;28;20734;-76
2021/07/26 03:14:02;;;;;;;3.53;3.22;;;18.90;77.50;;;;;;5020478;28;20731;-75
2021/07/26 03:16:27;;;;;;;3.03;2.92;;;18.80;77.20;;;;;;5026806;28;20192;-76
2021/07/26 03:18:53;;;;;;;2.78;2.67;;;18.80;77.30;;;;;;5023657;28;20238;-76
2021/07/26 03:21:19;;;;;;;3.15;2.95;;;18.80;77.70;;;;;;5026496;28;20561;-76
2021/07/26 03:23:45;;;;;;;3.13;2.92;;;18.80;78.10;;;;;;5021063;28;20184;-75
2021/07/26 03:26:11;;;;;;;2.90;2.78;;;18.80;77.80;;;;;;5017229;28;20226;-75
2021/07/26 03:28:37;;;;;;;3.42;3.17;;;18.80;77.70;;;;;;5019439;28;20181;-75
2021/07/26 03:31:05;;;;;;;2.88;2.70;;;18.80;77.70;;;;;;5026355;28;20176;-75
2021/07/26 03:33:31;;;;;;;3.00;2.78;;;18.80;77.70;;;;;;5013515;28;20243;-75
2021/07/26 03:35:57;;;;;;;2.30;2.20;;;18.70;77.60;;;;;;5020194;28;20193;-75
2021/07/26 03:38:24;;;;;;;4.78;2.95;;;18.70;77.60;;;;;;5025353;28;20268;-75
2021/07/26 03:40:50;;;;;;;2.63;2.42;;;18.80;77.50;;;;;;5024616;28;20238;-75
2021/07/26 03:43:16;;;;;;;2.85;2.75;;;18.80;77.60;;;;;;5026565;28;20188;-74
2021/07/26 03:45:42;;;;;;;2.58;2.47;;;18.80;77.50;;;;;;5020374;28;21192;-77
2021/07/26 03:48:08;;;;;;;2.53;2.42;;;18.80;77.50;;;;;;5016709;28;20199;-76
2021/07/26 03:50:34;;;;;;;3.25;3.15;;;18.80;77.60;;;;;;5019295;28;20194;-76
2021/07/26 03:52:59;;;;;;;3.00;2.90;;;18.90;77.60;;;;;;5019181;28;20632;-76
2021/07/26 03:55:27;;;;;;;2.42;2.33;;;18.90;77.50;;;;;;5017896;28;20245;-76
2021/07/26 03:57:54;;;;;;;3.13;2.92;;;18.90;77.30;;;;;;5026415;28;20262;-76
2021/07/26 04:00:22;;;;;;;3.33;2.88;;;19.00;77.50;;;;;;5020770;28;20181;-75
2021/07/26 04:05:39;;;;;;;2.65;2.55;;;19.00;77.30;;;;;;5022995;28;20934;-76
2021/07/26 04:08:33;;;;;;;3.95;2.70;;;19.10;77.50;;;;;;5007574;28;20192;-75
2021/07/26 04:11:04;;;;;;;2.95;2.78;;;19.10;77.10;;;;;;5023906;28;20274;-76
2021/07/26 04:13:33;;;;;;;4.45;3.17;;;19.20;77.00;;;;;;5000783;28;20203;-76
2021/07/26 04:15:58;;;;;;;6.28;3.17;;;19.20;77.10;;;;;;5038607;28;20215;-75
2021/07/26 04:18:25;;;;;;;2.28;2.17;;;19.20;77.20;;;;;;5024650;28;20245;-76
2021/07/26 04:20:52;;;;;;;2.65;2.28;;;19.30;76.90;;;;;;5006711;28;20187;-76
2021/07/26 04:23:18;;;;;;;1.77;1.73;;;19.30;76.60;;;;;;5036975;28;20389;-75
2021/07/26 04:25:43;;;;;;;2.13;1.98;;;19.30;76.30;;;;;;5023219;28;20316;-75
2021/07/26 04:28:09;;;;;;;5.10;2.38;;;19.40;76.50;;;;;;5024318;28;21043;-75
2021/07/26 04:30:35;;;;;;;2.25;2.15;;;19.40;76.60;;;;;;5022653;28;20196;-76
2021/07/26 04:33:01;;;;;;;2.25;2.08;;;19.50;76.60;;;;;;5023471;28;20184;-75
2021/07/26 04:35:26;;;;;;;3.22;2.10;;;19.50;76.10;;;;;;5022080;28;20200;-74
2021/07/26 04:37:52;;;;;;;2.00;1.90;;;19.60;76.00;;;;;;5023052;28;20251;-73
2021/07/26 04:40:18;;;;;;;1.90;1.80;;;19.60;76.00;;;;;;5021665;28;20231;-73
2021/07/26 04:42:44;;;;;;;1.80;1.70;;;19.60;75.90;;;;;;5025245;28;20266;-73
2021/07/26 04:45:11;;;;;;;1.63;1.63;;;19.70;76.00;;;;;;5027647;28;20619;-75
2021/07/26 04:47:37;;;;;;;1.67;1.63;;;19.70;75.80;;;;;;5024742;28;20584;-75
2021/07/26 04:50:04;;;;;;;3.38;2.35;;;19.80;75.80;;;;;;5022712;28;20268;-73
2021/07/26 04:52:30;;;;;;;2.50;2.25;;;19.80;75.60;;;;;;5030210;28;20201;-73
2021/07/26 04:54:55;;;;;;;3.53;3.22;;;19.90;75.60;;;;;;5022373;28;20187;-73
2021/07/26 04:57:21;;;;;;;2.88;2.63;;;19.90;75.80;;;;;;5023813;28;20188;-74
2021/07/26 04:59:47;;;;;;;3.08;2.88;;;20.00;75.90;;;;;;5020060;28;20204;-74
2021/07/26 05:02:14;;;;;;;3.97;3.03;;;20.00;76.00;;;;;;5021635;28;20208;-72
2021/07/26 05:04:40;;;;;;;3.17;2.90;;;20.00;75.80;;;;;;5022172;28;20812;-73
2021/07/26 05:07:06;;;;;;;3.35;3.22;;;20.10;75.80;;;;;;5018183;28;20184;-73
2021/07/26 05:09:37;;;;;;;3.97;3.58;;;20.20;76.00;;;;;;5029367;28;20176;-73
2021/07/26 05:12:05;;;;;;;4.60;4.20;;;20.20;75.70;;;;;;5017123;28;20601;-73
2021/07/26 05:14:31;;;;;;;4.22;3.83;;;20.30;76.10;;;;;;5026029;28;20195;-73
2021/07/26 05:16:57;;;;;;;3.90;3.70;;;20.30;75.90;;;;;;5024150;28;20241;-73
2021/07/26 05:19:23;;;;;;;6.03;3.47;;;20.30;76.10;;;;;;5018957;28;20196;-73
2021/07/26 05:21:49;;;;;;;4.85;3.58;;;20.40;75.80;;;;;;5020076;28;20188;-72
2021/07/26 05:24:14;;;;;;;3.90;3.60;;;20.40;75.70;;;;;;5017984;28;20196;-72
2021/07/26 05:26:40;;;;;;;5.88;4.22;;;20.50;76.40;;;;;;5019067;28;20227;-74
2021/07/26 05:29:06;;;;;;;3.90;3.60;;;20.50;75.80;;;;;;5023931;28;20699;-79
2021/07/26 05:31:31;;;;;;;3.60;3.40;;;20.50;75.80;;;;;;5025318;28;20303;-76
2021/07/26 05:33:57;;;;;;;3.75;3.33;;;20.60;75.70;;;;;;5026794;28;20184;-79
2021/07/26 05:36:24;;;;;;;5.00;3.58;;;20.60;75.90;;;;;;5024868;28;20994;-77
2021/07/26 05:38:53;;;;;;;4.22;3.92;;;20.70;76.10;;;;;;5023866;28;20184;-78
2021/07/26 05:41:19;;;;;;;5.60;4.05;;;20.70;75.30;;;;;;5028331;28;20208;-75
2021/07/26 05:43:45;;;;;;;4.90;4.47;;;20.70;75.50;;;;;;5028114;28;20551;-74
2021/07/26 05:46:11;;;;;;;4.70;4.28;;;20.80;75.50;;;;;;5023439;28;20243;-73
2021/07/26 05:48:37;;;;;;;5.03;3.65;;;20.80;75.30;;;;;;5016029;28;20207;-74
2021/07/26 05:51:06;;;;;;;3.88;3.58;;;20.90;75.30;;;;;;5026001;28;20195;-73
2021/07/26 05:53:32;;;;;;;3.65;3.42;;;20.90;75.10;;;;;;5020271;28;20185;-72
2021/07/26 05:55:57;;;;;;;4.20;3.80;;;21.00;74.90;;;;;;5019479;28;20196;-73
2021/07/26 05:58:25;;;;;;;3.85;2.92;;;21.00;74.80;;;;;;5022198;28;20662;-73
2021/07/26 06:01:09;;;;;;;3.72;3.50;;;21.10;74.80;;;;;;5022473;28;20287;-74
2021/07/26 06:03:34;;;;;;;3.75;3.45;;;21.20;74.60;;;;;;5025703;28;20254;-74
2021/07/26 06:06:03;;;;;;;4.68;3.63;;;21.20;74.40;;;;;;5030886;28;20220;-74
2021/07/26 06:08:29;;;;;;;4.53;3.60;;;21.30;74.20;;;;;;5025869;28;20212;-74
2021/07/26 06:10:54;;;;;;;3.50;3.20;;;21.30;74.20;;;;;;5027526;28;20212;-74
2021/07/26 06:13:20;;;;;;;4.70;3.10;;;21.40;74.10;;;;;;5027429;28;20184;-74
2021/07/26 06:15:45;;;;;;;4.10;3.80;;;21.40;74.20;;;;;;5027288;28;20207;-74
2021/07/26 06:18:11;;;;;;;4.60;3.55;;;21.50;73.80;;;;;;5025772;28;20519;-75
2021/07/26 06:20:37;;;;;;;3.00;2.88;;;21.60;73.70;;;;;;5027286;28;20230;-74
2021/07/26 06:23:02;;;;;;;4.43;2.95;;;21.60;73.50;;;;;;5027633;28;20219;-74
2021/07/26 06:25:28;;;;;;;3.53;2.97;;;21.70;73.50;;;;;;5027420;28;20220;-74
2021/07/26 06:27:54;;;;;;;2.53;2.42;;;21.70;73.50;;;;;;5027408;28;20181;-74
2021/07/26 06:30:20;;;;;;;3.58;3.28;;;21.80;73.90;;;;;;5027180;28;20180;-74
2021/07/26 06:32:45;;;;;;;3.83;3.47;;;21.80;73.40;;;;;;5026908;28;20180;-74
2021/07/26 06:35:11;;;;;;;4.00;3.00;;;21.90;73.20;;;;;;5027227;28;20195;-74
2021/07/26 06:37:37;;;;;;;4.13;3.72;;;21.90;73.10;;;;;;5026933;28;20212;-74
2021/07/26 06:40:07;;;;;;;4.28;3.22;;;22.00;72.70;;;;;;5027060;28;20693;-74
2021/07/26 06:42:33;;;;;;;2.97;2.38;;;22.00;72.70;;;;;;5026503;28;20560;-74
2021/07/26 06:44:59;;;;;;;2.30;2.20;;;22.10;73.40;;;;;;5026401;28;20181;-74
2021/07/26 06:47:25;;;;;;;2.53;2.42;;;22.20;72.70;;;;;;5026711;28;20183;-74
2021/07/26 06:49:50;;;;;;;3.67;2.30;;;22.30;72.80;;;;;;5026794;28;20690;-75
2021/07/26 06:52:16;;;;;;;2.28;2.17;;;22.30;72.80;;;;;;5027167;28;20207;-72
2021/07/26 06:54:41;;;;;;;3.97;2.22;;;22.50;72.80;;;;;;5022898;28;20729;-74
2021/07/26 06:57:07;;;;;;;2.58;2.35;;;22.50;72.40;;;;;;5026399;28;20645;-74
2021/07/26 06:59:33;;;;;;;2.20;2.10;;;22.60;72.20;;;;;;5034815;28;20180;-74
2021/07/26 07:01:58;;;;;;;3.35;2.38;;;22.70;72.20;;;;;;5031801;28;20184;-75
2021/07/26 07:04:24;;;;;;;3.10;2.13;;;22.80;72.40;;;;;;5029335;28;20331;-74
2021/07/26 07:06:50;;;;;;;2.83;1.92;;;22.90;72.30;;;;;;5026378;28;20231;-74
2021/07/26 07:09:16;;;;;;;2.45;2.08;;;23.00;72.00;;;;;;5026281;28;20268;-74
2021/07/26 07:11:42;;;;;;;2.10;2.00;;;23.10;71.60;;;;;;5025110;28;20184;-75
2021/07/26 07:14:07;;;;;;;2.35;1.92;;;23.20;71.30;;;;;;5026289;28;20258;-74
2021/07/26 07:16:33;;;;;;;1.98;1.88;;;23.30;71.30;;;;;;5026551;28;20185;-74
2021/07/26 07:18:59;;;;;;;1.90;1.85;;;23.30;71.20;;;;;;5026272;28;20607;-75
2021/07/26 07:21:26;;;;;;;2.10;2.03;;;23.40;70.90;;;;;;5026269;28;20184;-74
2021/07/26 07:23:54;;;;;;;2.42;2.15;;;23.50;70.60;;;;;;5017927;28;20585;-74
2021/07/26 07:26:21;;;;;;;1.98;1.98;;;23.60;70.40;;;;;;5024490;28;20712;-74
2021/07/26 07:28:47;;;;;;;2.55;2.10;;;23.70;69.80;;;;;;5024480;28;20199;-74
2021/07/26 07:31:17;;;;;;;2.58;2.47;;;23.70;69.80;;;;;;5026038;28;20184;-75
2021/07/26 07:33:44;;;;;;;2.35;1.90;;;23.80;69.70;;;;;;5026169;28;20270;-74
2021/07/26 07:36:09;;;;;;;5.10;2.20;;;23.90;69.30;;;;;;5024518;28;20205;-74
2021/07/26 07:38:35;;;;;;;5.78;2.13;;;24.00;69.40;;;;;;5026128;28;20259;-74
2021/07/26 07:41:02;;;;;;;2.22;2.13;;;24.00;69.70;;;;;;5026015;28;20184;-74
2021/07/26 07:43:29;;;;;;;3.42;2.08;;;24.10;69.60;;;;;;5024683;28;20697;-74
2021/07/26 07:45:55;;;;;;;3.17;2.17;;;24.20;69.30;;;;;;5025495;28;20203;-74
2021/07/26 07:48:25;;;;;;;2.13;2.03;;;24.20;68.80;;;;;;5024757;28;20222;-74
2021/07/26 07:50:55;;;;;;;2.17;2.17;;;24.30;68.30;;;;;;5024227;28;20571;-74
2021/07/26 07:53:21;;;;;;;2.50;2.38;;;24.30;67.50;;;;;;5025966;28;20723;-74
2021/07/26 07:55:48;;;;;;;1.50;1.50;;;24.30;67.60;;;;;;5019673;28;20681;-74
2021/07/26 07:58:14;;;;;;;1.85;1.83;;;24.30;68.20;;;;;;5023923;28;20180;-74
2021/07/26 08:00:40;;;;;;;2.50;2.40;;;24.30;68.50;;;;;;5025635;28;20195;-73
2021/07/26 08:03:06;;;;;;;8.27;2.40;;;24.40;68.50;;;;;;5025546;28;20191;-73
2021/07/26 08:05:32;;;;;;;16.10;2.90;;;24.50;68.60;;;;;;5029331;28;20602;-74
2021/07/26 08:07:57;;;;;;;7.22;1.98;;;24.60;68.40;;;;;;5025841;28;20569;-73
2021/07/26 08:10:24;;;;;;;2.30;2.20;;;24.60;68.30;;;;;;5025803;28;20233;-73
2021/07/26 08:12:50;;;;;;;2.40;2.28;;;24.80;67.70;;;;;;5025911;28;20454;-73
2021/07/26 08:15:16;;;;;;;3.00;2.80;;;24.80;67.80;;;;;;5025509;28;20826;-73
2021/07/26 08:17:44;;;;;;;2.53;2.42;;;24.90;67.20;;;;;;5027127;28;20203;-74
2021/07/26 08:20:12;;;;;;;3.03;2.75;;;25.00;66.30;;;;;;5029375;28;20180;-74
2021/07/26 08:22:38;;;;;;;4.75;2.78;;;25.00;66.00;;;;;;5029594;28;20321;-73
2021/07/26 08:25:06;;;;;;;6.03;2.20;;;25.10;65.80;;;;;;5029395;28;20280;-73
2021/07/26 08:27:45;;;;;;;4.93;2.75;;;25.20;66.00;;;;;;5029573;28;20186;-73
2021/07/26 08:30:11;;;;;;;3.53;2.80;;;25.20;66.50;;;;;;5029911;28;20638;-73
2021/07/26 08:32:37;;;;;;;3.15;2.47;;;25.30;66.70;;;;;;5029698;28;20253;-73
2021/07/26 08:35:03;;;;;;;4.90;2.70;;;25.40;65.80;;;;;;5029875;28;20188;-73
2021/07/26 08:37:30;;;;;;;3.00;2.80;;;25.50;65.40;;;;;;5030779;28;20184;-73
2021/07/26 08:40:00;;;;;;;2.65;2.55;;;25.60;65.30;;;;;;5029862;28;20271;-74
2021/07/26 08:42:26;;;;;;;2.67;2.55;;;25.70;64.60;;;;;;5027779;28;20198;-73
2021/07/26 08:44:52;;;;;;;3.65;3.17;;;25.80;64.90;;;;;;5020223;28;20180;-74
2021/07/26 08:47:19;;;;;;;2.85;2.63;;;25.90;65.30;;;;;;5028947;28;20805;-73
2021/07/26 08:49:45;;;;;;;3.38;2.70;;;26.00;64.90;;;;;;5029018;28;20183;-73
2021/07/26 08:52:16;;;;;;;4.43;2.47;;;26.10;64.50;;;;;;5029273;28;20293;-73
2021/07/26 08:54:43;;;;;;;2.55;2.45;;;26.30;64.30;;;;;;5025089;28;20302;-73
2021/07/26 08:57:09;;;;;;;3.47;2.83;;;26.40;64.40;;;;;;5020881;28;21050;-73
2021/07/26 08:59:35;;;;;;;4.15;2.45;;;26.50;64.00;;;;;;5028852;28;20184;-73
2021/07/26 09:02:01;;;;;;;2.63;2.53;;;26.60;63.90;;;;;;5028665;28;20184;-74
2021/07/26 09:04:27;;;;;;;2.65;2.58;;;26.80;63.80;;;;;;5032366;28;20202;-74
2021/07/26 09:06:55;;;;;;;4.07;2.25;;;26.90;63.90;;;;;;5029415;28;20224;-74
2021/07/26 09:09:42;;;;;;;5.55;2.45;;;27.00;63.70;;;;;;5028974;28;20274;-73
2021/07/26 09:12:08;;;;;;;2.92;2.75;;;27.20;63.70;;;;;;5027034;28;20638;-73
2021/07/26 09:14:39;;;;;;;3.33;2.75;;;27.30;63.50;;;;;;5028408;28;20317;-73
2021/07/26 09:17:09;;;;;;;3.15;2.95;;;27.40;63.10;;;;;;5028173;28;20200;-73
2021/07/26 09:19:59;;;;;;;4.00;2.33;;;27.50;62.00;;;;;;5028241;28;20191;-73
2021/07/26 09:22:37;;;;;;;2.65;2.55;;;27.70;61.60;;;;;;5028053;28;20673;-74
2021/07/26 09:25:22;;;;;;;2.67;2.40;;;27.80;60.90;;;;;;5028279;28;20188;-73
2021/07/26 09:28:01;;;;;;;4.00;2.55;;;27.90;61.90;;;;;;5028522;28;20639;-74
2021/07/26 09:30:39;;;;;;;3.35;3.10;;;28.10;62.10;;;;;;5021686;28;20184;-74
2021/07/26 09:33:22;;;;;;;3.35;3.00;;;28.20;61.60;;;;;;5022820;28;20228;-74
2021/07/26 09:36:08;;;;;;;2.78;2.67;;;28.40;60.40;;;;;;5020774;28;20183;-73
2021/07/26 09:38:35;;;;;;;3.17;3.08;;;28.50;60.40;;;;;;5024364;28;20184;-74
2021/07/26 09:41:01;;;;;;;5.32;2.55;;;28.60;60.80;;;;;;5024022;28;20189;-73
2021/07/26 09:43:27;;;;;;;3.88;2.95;;;28.80;61.30;;;;;;5016361;28;20189;-73
2021/07/26 09:45:55;;;;;;;3.92;2.97;;;29.00;61.10;;;;;;5025920;28;20804;-76
2021/07/26 09:48:27;;;;;;;2.65;2.55;;;29.10;61.10;;;;;;5024293;28;20207;-76
2021/07/26 09:51:00;;;;;;;3.22;3.10;;;29.30;61.10;;;;;;5022453;28;20192;-73
2021/07/26 09:53:27;;;;;;;2.92;2.78;;;29.50;60.60;;;;;;5019814;28;20284;-73
2021/07/26 09:55:58;;;;;;;3.60;3.40;;;29.80;58.80;;;;;;5024029;28;20196;-73
2021/07/26 09:58:38;;;;;;;3.38;3.28;;;30.00;58.10;;;;;;5028151;28;20207;-73
2021/07/26 10:01:05;;;;;;;7.47;5.53;;;30.10;56.90;;;;;;5019765;28;20646;-73
2021/07/26 10:03:31;;;;;;;5.40;4.90;;;30.30;57.40;;;;;;5027549;28;20180;-73
2021/07/26 10:06:01;;;;;;;3.65;3.33;;;30.60;57.30;;;;;;5031436;28;20207;-73
2021/07/26 10:08:31;;;;;;;4.13;3.85;;;30.90;55.80;;;;;;5027160;28;20187;-74
2021/07/26 10:10:57;;;;;;;5.43;3.53;;;31.10;56.00;;;;;;5027506;28;20184;-73
2021/07/26 10:13:24;;;;;;;3.42;3.25;;;31.50;56.70;;;;;;5027035;28;20279;-73
2021/07/26 10:15:50;;;;;;;4.35;4.05;;;31.80;55.80;;;;;;5027344;28;20206;-73
2021/07/26 10:18:16;;;;;;;4.07;3.88;;;32.20;56.10;;;;;;5027315;28;20238;-74
2021/07/26 10:20:57;;;;;;;6.15;5.63;;;32.70;56.10;;;;;;5027710;28;20184;-73
2021/07/26 10:23:36;;;;;;;4.97;4.47;;;33.10;53.50;;;;;;5027803;28;20240;-72
2021/07/26 10:26:15;;;;;;;5.72;5.25;;;33.70;53.00;;;;;;5027233;28;20216;-73
2021/07/26 10:29:00;;;;;;;5.47;4.97;;;34.20;52.50;;;;;;5027130;28;20279;-73
2021/07/26 10:31:29;;;;;;;6.63;4.90;;;34.90;50.80;;;;;;5027276;28;20183;-73
2021/07/26 10:34:13;;;;;;;8.45;5.93;;;35.40;50.30;;;;;;5025728;28;20190;-73
2021/07/26 10:36:44;;;;;;;12.55;7.10;;;35.90;51.00;;;;;;5022754;28;20338;-73
2021/07/26 10:39:14;;;;;;;7.93;7.28;;;36.40;50.20;;;;;;5026401;28;20183;-73
2021/07/26 10:41:42;;;;;;;8.07;7.22;;;36.90;50.00;;;;;;5024060;28;20182;-73
2021/07/26 10:44:18;;;;;;;10.20;9.20;;;37.40;49.10;;;;;;5027524;28;20190;-74
2021/07/26 10:49:45;;;;;;;10.13;9.13;;;38.40;48.20;;;;;;5026070;28;20832;-74
2021/07/26 10:52:25;;;;;;;10.50;9.27;;;38.90;47.20;;;;;;5025157;28;20179;-74
2021/07/26 10:54:51;;;;;;;8.10;7.30;;;39.50;45.70;;;;;;5020253;28;20575;-74
2021/07/26 10:57:40;;;;;;;13.45;9.35;;;39.80;45.40;;;;;;5024782;28;20241;-74
2021/07/26 11:00:15;;;;;;;11.20;10.00;;;40.20;44.80;;;;;;5025232;28;20300;-75
2021/07/26 11:02:51;;;;;;;12.93;10.57;;;40.50;44.90;;;;;;5023681;28;20187;-74
2021/07/26 11:05:26;;;;;;;9.38;8.48;;;40.80;46.30;;;;;;5026158;28;20728;-75
2021/07/26 11:08:14;;;;;;;9.55;8.00;;;41.10;44.10;;;;;;5009637;28;20263;-75
2021/07/26 11:10:46;;;;;;;9.88;7.20;;;41.50;43.10;;;;;;5013580;28;20188;-74
2021/07/26 11:13:12;;;;;;;7.28;6.78;;;41.90;42.60;;;;;;5026490;28;20183;-76
2021/07/26 11:15:48;;;;;;;6.93;6.20;;;42.20;43.60;;;;;;5021345;28;20287;-74
2021/07/26 11:18:20;;;;;;;6.63;5.78;;;42.60;42.40;;;;;;5026482;28;20657;-75
2021/07/26 11:21:06;;;;;;;13.30;6.22;;;42.80;43.30;;;;;;5025429;28;20669;-75
2021/07/26 11:23:47;;;;;;;9.30;6.10;;;43.10;42.20;;;;;;5025734;28;20528;-72
2021/07/26 11:26:19;;;;;;;5.28;4.88;;;43.30;41.80;;;;;;5027576;28;20329;-76
2021/07/26 11:28:45;;;;;;;7.97;4.90;;;43.50;43.60;;;;;;5025201;28;20175;-74
2021/07/26 11:31:19;;;;;;;5.10;4.75;;;43.70;42.70;;;;;;5029554;28;20192;-74
2021/07/26 11:33:44;;;;;;;5.38;4.65;;;43.90;42.30;;;;;;5027678;28;20176;-75
2021/07/26 11:36:10;;;;;;;5.93;5.28;;;44.20;41.60;;;;;;5030626;28;20312;-75
2021/07/26 11:38:59;;;;;;;4.55;4.22;;;44.40;41.80;;;;;;5031058;28;20184;-75
2021/07/26 11:41:25;;;;;;;4.15;3.95;;;44.50;39.80;;;;;;5029192;28;20262;-75
2021/07/26 11:43:52;;;;;;;3.58;3.50;;;44.80;42.70;;;;;;5027821;28;20183;-75
2021/07/26 11:46:18;;;;;;;4.60;4.10;;;44.90;42.10;;;;;;5026857;28;20312;-75
2021/07/26 11:48:44;;;;;;;4.07;3.88;;;44.90;40.80;;;;;;5029405;28;20190;-75
2021/07/26 11:51:26;;;;;;;3.97;3.78;;;44.90;42.00;;;;;;5031034;28;20184;-75
2021/07/26 11:54:06;;;;;;;4.30;4.05;;;44.70;40.40;;;;;;5031219;28;20183;-75
2021/07/26 11:56:32;;;;;;;4.15;3.95;;;44.50;41.00;;;;;;5026831;28;20183;-75
2021/07/26 11:59:21;;;;;;;4.38;4.18;;;44.20;40.50;;;;;;5027374;28;21027;-75
2021/07/26 12:01:56;;;;;;;4.13;3.97;;;44.00;40.00;;;;;;5027130;28;20184;-74
2021/07/26 12:04:26;;;;;;;4.28;4.05;;;44.00;42.70;;;;;;5027653;28;20211;-74
2021/07/26 12:06:53;;;;;;;4.60;4.20;;;44.40;42.00;;;;;;5028753;28;20270;-74
2021/07/26 12:09:19;;;;;;;4.78;4.50;;;44.70;41.30;;;;;;5030563;28;20207;-75
2021/07/26 12:11:45;;;;;;;4.32;3.92;;;45.20;40.20;;;;;;5029990;28;20569;-75
2021/07/26 12:14:23;;;;;;;6.82;4.10;;;45.50;41.50;;;;;;5032928;28;20271;-75
2021/07/26 12:17:03;;;;;;;4.45;4.15;;;45.50;39.40;;;;;;5039162;28;20191;-76
2021/07/26 12:19:30;;;;;;;4.22;4.00;;;45.30;40.20;;;;;;5039156;28;20546;-76
2021/07/26 12:21:57;;;;;;;4.13;3.92;;;45.00;40.10;;;;;;5038864;28;20267;-76
2021/07/26 12:24:42;;;;;;;4.88;4.60;;;45.10;41.80;;;;;;5038378;28;21035;-75
2021/07/26 12:27:08;;;;;;;4.70;4.30;;;45.30;39.10;;;;;;5036639;28;20250;-77
2021/07/26 12:29:34;;;;;;;4.68;4.28;;;45.50;40.20;;;;;;5033832;28;20607;-76
2021/07/26 12:32:06;;;;;;;4.38;4.18;;;45.80;41.80;;;;;;5035581;28;20180;-75
2021/07/26 12:34:31;;;;;;;4.68;4.38;;;46.20;41.20;;;;;;5027365;28;20652;-75
2021/07/26 12:37:07;;;;;;;5.32;4.85;;;46.50;39.90;;;;;;5029968;28;20318;-75
2021/07/26 12:39:40;;;;;;;4.05;3.90;;;46.90;39.80;;;;;;5030688;28;20179;-76
2021/07/26 12:42:21;;;;;;;4.43;4.13;;;47.20;41.00;;;;;;5032039;28;20191;-76
2021/07/26 12:44:47;;;;;;;4.78;4.45;;;47.30;38.10;;;;;;5029152;28;20245;-75
2021/07/26 12:47:30;;;;;;;4.35;4.07;;;47.20;38.50;;;;;;5028224;28;20621;-74
2021/07/26 12:49:55;;;;;;;4.22;4.10;;;47.10;38.30;;;;;;5024171;28;20219;-76
2021/07/26 12:52:21;;;;;;;6.82;4.10;;;47.20;39.40;;;;;;5029004;28;20417;-76
2021/07/26 12:54:47;;;;;;;4.43;3.97;;;47.20;40.20;;;;;;5034007;28;20199;-75
2021/07/26 12:57:13;;;;;;;4.47;4.20;;;47.40;39.20;;;;;;5031944;28;20196;-75